sensor_id;sensor_type;location;lat;lon;timestamp;P1;durP1;ratioP1;P2;durP2;ratioP2
16839;SDS011;8536;52.150;11.572;2022-12-29T00:01:57;2.17;;;1.20;;
16839;SDS011;8536;52.150;11.572;2022-12-29T00:04:24;1.25;;;1.02;;
16839;SDS011;8536;52.150;11.572;2022-12-29T00:06:51;2.25;;;0.82;;
16839;SDS011;8536;52.150;11.572;2022-12-29T00:09:18;1.20;;;1.10;;
16839;SDS011;8536;52.150;11.572;2022-12-29T00:11:45;2.03;;;0.90;;
16839;SDS011;8536;52.150;11.572;2022-12-29T00:14:12;1.30;;;1.10;;
16839;SDS011;8536;52.150;11.572;2022-12-29T00:16:57;1.67;;;1.35;;
16839;SDS011;8536;52.150;11.572;2022-12-29T00:19:24;2.00;;;1.25;;
16839;SDS011;8536;52.150;11.572;2022-12-29T00:22:10;1.60;;;0.95;;
16839;SDS011;8536;52.150;11.572;2022-12-29T00:24:55;1.30;;;1.00;;
16839;SDS011;8536;52.150;11.572;2022-12-29T00:27:40;1.80;;;1.23;;
16839;SDS011;8536;52.150;11.572;2022-12-29T00:30:32;3.63;;;1.30;;
16839;SDS011;8536;52.150;11.572;2022-12-29T00:33:18;1.80;;;1.23;;
16839;SDS011;8536;52.150;11.572;2022-12-29T00:36:05;1.75;;;1.20;;
16839;SDS011;8536;52.150;11.572;2022-12-29T00:38:36;0.80;;;0.80;;
16839;SDS011;8536;52.150;11.572;2022-12-29T00:41:23;2.70;;;1.35;;
16839;SDS011;8536;52.150;11.572;2022-12-29T00:44:08;1.00;;;0.90;;
16839;SDS011;8536;52.150;11.572;2022-12-29T00:46:37;1.50;;;1.05;;
16839;SDS011;8536;52.150;11.572;2022-12-29T00:49:04;1.48;;;0.90;;
16839;SDS011;8536;52.150;11.572;2022-12-29T00:51:50;1.95;;;1.00;;
16839;SDS011;8536;52.150;11.572;2022-12-29T00:54:17;2.38;;;1.10;;
16839;SDS011;8536;52.150;11.572;2022-12-29T00:56:51;2.38;;;1.30;;
16839;SDS011;8536;52.150;11.572;2022-12-29T00:59:18;1.60;;;0.88;;
16839;SDS011;8536;52.150;11.572;2022-12-29T01:01:45;1.27;;;1.10;;
16839;SDS011;8536;52.150;11.572;2022-12-29T01:04:13;2.80;;;1.17;;
16839;SDS011;8536;52.150;11.572;2022-12-29T01:06:40;1.48;;;1.30;;
16839;SDS011;8536;52.150;11.572;2022-12-29T01:09:07;1.63;;;1.13;;
16839;SDS011;8536;52.150;11.572;2022-12-29T01:11:53;2.20;;;1.30;;
16839;SDS011;8536;52.150;11.572;2022-12-29T01:14:20;1.38;;;1.17;;
16839;SDS011;8536;52.150;11.572;2022-12-29T01:16:47;1.60;;;1.20;;
16839;SDS011;8536;52.150;11.572;2022-12-29T01:19:14;1.88;;;1.15;;
16839;SDS011;8536;52.150;11.572;2022-12-29T01:21:43;1.20;;;1.10;;
16839;SDS011;8536;52.150;11.572;2022-12-29T01:24:10;2.38;;;1.30;;
16839;SDS011;8536;52.150;11.572;2022-12-29T01:26:36;2.05;;;1.42;;
16839;SDS011;8536;52.150;11.572;2022-12-29T01:29:03;1.15;;;1.05;;
16839;SDS011;8536;52.150;11.572;2022-12-29T01:31:32;1.58;;;1.30;;
16839;SDS011;8536;52.150;11.572;2022-12-29T01:33:58;2.58;;;1.10;;
16839;SDS011;8536;52.150;11.572;2022-12-29T01:36:25;3.65;;;1.33;;
16839;SDS011;8536;52.150;11.572;2022-12-29T01:38:52;2.15;;;1.00;;
16839;SDS011;8536;52.150;11.572;2022-12-29T01:41:18;1.17;;;1.08;;
16839;SDS011;8536;52.150;11.572;2022-12-29T01:43:46;1.25;;;0.90;;
16839;SDS011;8536;52.150;11.572;2022-12-29T01:51:35;1.33;;;1.10;;
16839;SDS011;8536;52.150;11.572;2022-12-29T01:54:06;2.78;;;1.38;;
16839;SDS011;8536;52.150;11.572;2022-12-29T01:56:35;1.42;;;1.20;;
16839;SDS011;8536;52.150;11.572;2022-12-29T01:59:08;1.60;;;1.20;;
16839;SDS011;8536;52.150;11.572;2022-12-29T02:01:39;1.50;;;1.40;;
16839;SDS011;8536;52.150;11.572;2022-12-29T02:04:06;3.72;;;1.20;;
16839;SDS011;8536;52.150;11.572;2022-12-29T02:06:39;1.17;;;0.88;;
16839;SDS011;8536;52.150;11.572;2022-12-29T02:09:10;0.90;;;0.90;;
16839;SDS011;8536;52.150;11.572;2022-12-29T02:11:36;1.92;;;1.00;;
16839;SDS011;8536;52.150;11.572;2022-12-29T02:14:08;2.60;;;1.10;;
16839;SDS011;8536;52.150;11.572;2022-12-29T02:16:40;3.90;;;1.08;;
16839;SDS011;8536;52.150;11.572;2022-12-29T02:19:34;3.15;;;1.42;;
16839;SDS011;8536;52.150;11.572;2022-12-29T02:25:00;1.88;;;1.17;;
16839;SDS011;8536;52.150;11.572;2022-12-29T02:27:36;2.05;;;1.23;;
16839;SDS011;8536;52.150;11.572;2022-12-29T02:30:27;1.48;;;1.08;;
16839;SDS011;8536;52.150;11.572;2022-12-29T02:41:24;1.73;;;1.00;;
16839;SDS011;8536;52.150;11.572;2022-12-29T02:46:34;2.28;;;1.30;;
16839;SDS011;8536;52.150;11.572;2022-12-29T02:49:13;1.20;;;1.10;;
16839;SDS011;8536;52.150;11.572;2022-12-29T02:51:46;1.67;;;1.27;;
16839;SDS011;8536;52.150;11.572;2022-12-29T02:54:18;1.98;;;1.20;;
16839;SDS011;8536;52.150;11.572;2022-12-29T02:59:40;3.08;;;1.33;;
16839;SDS011;8536;52.150;11.572;2022-12-29T03:02:14;2.78;;;1.20;;
16839;SDS011;8536;52.150;11.572;2022-12-29T03:16:21;2.08;;;1.42;;
16839;SDS011;8536;52.150;11.572;2022-12-29T03:19:01;1.48;;;1.17;;
16839;SDS011;8536;52.150;11.572;2022-12-29T03:24:25;1.90;;;1.48;;
16839;SDS011;8536;52.150;11.572;2022-12-29T03:26:54;1.67;;;1.58;;
16839;SDS011;8536;52.150;11.572;2022-12-29T03:29:22;1.50;;;1.40;;
16839;SDS011;8536;52.150;11.572;2022-12-29T03:31:49;2.25;;;1.38;;
16839;SDS011;8536;52.150;11.572;2022-12-29T03:34:18;2.28;;;1.73;;
16839;SDS011;8536;52.150;11.572;2022-12-29T03:36:54;2.05;;;1.55;;
16839;SDS011;8536;52.150;11.572;2022-12-29T03:39:25;1.77;;;1.33;;
16839;SDS011;8536;52.150;11.572;2022-12-29T03:41:58;3.90;;;1.50;;
16839;SDS011;8536;52.150;11.572;2022-12-29T03:44:34;2.38;;;1.50;;
16839;SDS011;8536;52.150;11.572;2022-12-29T03:47:03;2.75;;;1.30;;
16839;SDS011;8536;52.150;11.572;2022-12-29T03:49:30;2.13;;;1.50;;
16839;SDS011;8536;52.150;11.572;2022-12-29T03:51:56;1.13;;;1.02;;
16839;SDS011;8536;52.150;11.572;2022-12-29T03:54:23;1.95;;;1.20;;
16839;SDS011;8536;52.150;11.572;2022-12-29T03:56:49;2.45;;;1.27;;
16839;SDS011;8536;52.150;11.572;2022-12-29T03:59:16;3.00;;;1.30;;
16839;SDS011;8536;52.150;11.572;2022-12-29T04:01:43;1.63;;;1.45;;
16839;SDS011;8536;52.150;11.572;2022-12-29T04:04:10;1.48;;;1.38;;
16839;SDS011;8536;52.150;11.572;2022-12-29T04:06:37;1.58;;;1.27;;
16839;SDS011;8536;52.150;11.572;2022-12-29T04:09:03;1.55;;;1.33;;
16839;SDS011;8536;52.150;11.572;2022-12-29T04:11:30;1.83;;;1.33;;
16839;SDS011;8536;52.150;11.572;2022-12-29T04:13:59;1.90;;;1.15;;
16839;SDS011;8536;52.150;11.572;2022-12-29T04:16:26;2.00;;;1.35;;
16839;SDS011;8536;52.150;11.572;2022-12-29T04:18:53;2.53;;;1.40;;
16839;SDS011;8536;52.150;11.572;2022-12-29T04:21:19;2.78;;;1.50;;
16839;SDS011;8536;52.150;11.572;2022-12-29T04:23:46;1.70;;;1.55;;
16839;SDS011;8536;52.150;11.572;2022-12-29T04:26:12;2.33;;;1.48;;
16839;SDS011;8536;52.150;11.572;2022-12-29T04:28:39;1.92;;;1.42;;
16839;SDS011;8536;52.150;11.572;2022-12-29T04:31:06;1.70;;;1.30;;
16839;SDS011;8536;52.150;11.572;2022-12-29T04:33:33;1.98;;;1.40;;
16839;SDS011;8536;52.150;11.572;2022-12-29T04:35:59;1.40;;;1.27;;
16839;SDS011;8536;52.150;11.572;2022-12-29T04:38:26;1.50;;;1.40;;
16839;SDS011;8536;52.150;11.572;2022-12-29T04:40:53;2.58;;;1.45;;
16839;SDS011;8536;52.150;11.572;2022-12-29T04:43:19;1.45;;;1.20;;
16839;SDS011;8536;52.150;11.572;2022-12-29T04:45:47;1.67;;;1.33;;
16839;SDS011;8536;52.150;11.572;2022-12-29T04:48:14;1.83;;;1.52;;
16839;SDS011;8536;52.150;11.572;2022-12-29T04:50:41;1.98;;;1.35;;
16839;SDS011;8536;52.150;11.572;2022-12-29T04:53:08;3.50;;;1.25;;
16839;SDS011;8536;52.150;11.572;2022-12-29T04:55:34;1.65;;;1.35;;
16839;SDS011;8536;52.150;11.572;2022-12-29T04:58:01;1.52;;;1.40;;
16839;SDS011;8536;52.150;11.572;2022-12-29T05:00:28;2.35;;;1.40;;
16839;SDS011;8536;52.150;11.572;2022-12-29T05:02:54;1.52;;;1.40;;
16839;SDS011;8536;52.150;11.572;2022-12-29T05:05:21;2.60;;;1.60;;
16839;SDS011;8536;52.150;11.572;2022-12-29T05:07:47;1.73;;;1.40;;
16839;SDS011;8536;52.150;11.572;2022-12-29T05:10:14;1.33;;;1.23;;
16839;SDS011;8536;52.150;11.572;2022-12-29T05:12:41;1.52;;;1.33;;
16839;SDS011;8536;52.150;11.572;2022-12-29T05:15:08;2.45;;;1.15;;
16839;SDS011;8536;52.150;11.572;2022-12-29T05:17:35;3.60;;;1.38;;
16839;SDS011;8536;52.150;11.572;2022-12-29T05:20:02;0.98;;;0.98;;
16839;SDS011;8536;52.150;11.572;2022-12-29T05:22:30;2.00;;;1.40;;
16839;SDS011;8536;52.150;11.572;2022-12-29T05:24:56;2.20;;;1.30;;
16839;SDS011;8536;52.150;11.572;2022-12-29T05:27:23;1.83;;;1.40;;
16839;SDS011;8536;52.150;11.572;2022-12-29T05:29:50;3.78;;;1.55;;
16839;SDS011;8536;52.150;11.572;2022-12-29T05:32:16;2.70;;;1.85;;
16839;SDS011;8536;52.150;11.572;2022-12-29T05:34:44;3.08;;;1.58;;
16839;SDS011;8536;52.150;11.572;2022-12-29T05:37:10;1.80;;;1.50;;
16839;SDS011;8536;52.150;11.572;2022-12-29T05:39:37;3.25;;;1.48;;
16839;SDS011;8536;52.150;11.572;2022-12-29T05:42:03;3.03;;;1.30;;
16839;SDS011;8536;52.150;11.572;2022-12-29T05:44:30;1.55;;;1.42;;
16839;SDS011;8536;52.150;11.572;2022-12-29T05:46:56;2.03;;;1.60;;
16839;SDS011;8536;52.150;11.572;2022-12-29T05:49:23;1.20;;;1.10;;
16839;SDS011;8536;52.150;11.572;2022-12-29T05:51:50;1.35;;;1.15;;
16839;SDS011;8536;52.150;11.572;2022-12-29T05:54:16;2.95;;;1.52;;
16839;SDS011;8536;52.150;11.572;2022-12-29T05:56:43;1.77;;;1.23;;
16839;SDS011;8536;52.150;11.572;2022-12-29T05:59:10;1.50;;;1.40;;
16839;SDS011;8536;52.150;11.572;2022-12-29T06:01:36;1.38;;;1.27;;
16839;SDS011;8536;52.150;11.572;2022-12-29T06:04:03;2.05;;;1.40;;
16839;SDS011;8536;52.150;11.572;2022-12-29T06:06:31;1.85;;;1.20;;
16839;SDS011;8536;52.150;11.572;2022-12-29T06:08:58;1.63;;;1.42;;
16839;SDS011;8536;52.150;11.572;2022-12-29T06:11:24;1.63;;;1.30;;
16839;SDS011;8536;52.150;11.572;2022-12-29T06:13:51;1.45;;;1.10;;
16839;SDS011;8536;52.150;11.572;2022-12-29T06:16:18;1.92;;;1.27;;
16839;SDS011;8536;52.150;11.572;2022-12-29T06:18:44;1.20;;;1.10;;
16839;SDS011;8536;52.150;11.572;2022-12-29T06:21:11;1.35;;;1.05;;
16839;SDS011;8536;52.150;11.572;2022-12-29T06:23:37;1.30;;;1.20;;
16839;SDS011;8536;52.150;11.572;2022-12-29T06:26:04;1.92;;;1.27;;
16839;SDS011;8536;52.150;11.572;2022-12-29T06:28:30;1.60;;;1.40;;
16839;SDS011;8536;52.150;11.572;2022-12-29T06:30:57;1.23;;;1.13;;
16839;SDS011;8536;52.150;11.572;2022-12-29T06:33:24;1.30;;;1.10;;
16839;SDS011;8536;52.150;11.572;2022-12-29T06:35:50;1.20;;;0.98;;
16839;SDS011;8536;52.150;11.572;2022-12-29T06:38:17;1.58;;;1.30;;
16839;SDS011;8536;52.150;11.572;2022-12-29T06:40:44;1.30;;;1.00;;
16839;SDS011;8536;52.150;11.572;2022-12-29T06:43:11;1.38;;;1.02;;
16839;SDS011;8536;52.150;11.572;2022-12-29T06:45:38;2.58;;;1.27;;
16839;SDS011;8536;52.150;11.572;2022-12-29T06:48:06;3.63;;;1.70;;
16839;SDS011;8536;52.150;11.572;2022-12-29T06:50:33;1.27;;;1.17;;
16839;SDS011;8536;52.150;11.572;2022-12-29T06:53:00;1.30;;;1.10;;
16839;SDS011;8536;52.150;11.572;2022-12-29T06:55:26;2.53;;;1.60;;
16839;SDS011;8536;52.150;11.572;2022-12-29T06:57:57;1.17;;;1.08;;
16839;SDS011;8536;52.150;11.572;2022-12-29T07:00:24;1.38;;;1.10;;
16839;SDS011;8536;52.150;11.572;2022-12-29T07:02:51;2.33;;;1.30;;
16839;SDS011;8536;52.150;11.572;2022-12-29T07:05:18;1.15;;;1.00;;
16839;SDS011;8536;52.150;11.572;2022-12-29T07:07:45;1.67;;;1.15;;
16839;SDS011;8536;52.150;11.572;2022-12-29T07:10:12;1.20;;;1.02;;
16839;SDS011;8536;52.150;11.572;2022-12-29T07:12:38;1.48;;;1.30;;
16839;SDS011;8536;52.150;11.572;2022-12-29T07:15:05;0.98;;;0.80;;
16839;SDS011;8536;52.150;11.572;2022-12-29T07:17:32;1.48;;;0.95;;
16839;SDS011;8536;52.150;11.572;2022-12-29T07:19:59;1.08;;;0.98;;
16839;SDS011;8536;52.150;11.572;2022-12-29T07:22:25;1.52;;;1.08;;
16839;SDS011;8536;52.150;11.572;2022-12-29T07:24:53;1.20;;;1.00;;
16839;SDS011;8536;52.150;11.572;2022-12-29T07:27:22;1.92;;;1.00;;
16839;SDS011;8536;52.150;11.572;2022-12-29T07:29:49;0.95;;;0.95;;
16839;SDS011;8536;52.150;11.572;2022-12-29T07:32:16;1.42;;;1.13;;
16839;SDS011;8536;52.150;11.572;2022-12-29T07:34:43;2.25;;;1.10;;
16839;SDS011;8536;52.150;11.572;2022-12-29T07:37:11;1.17;;;0.90;;
16839;SDS011;8536;52.150;11.572;2022-12-29T07:39:38;2.85;;;1.00;;
16839;SDS011;8536;52.150;11.572;2022-12-29T07:42:04;2.30;;;1.10;;
16839;SDS011;8536;52.150;11.572;2022-12-29T07:44:31;2.33;;;1.00;;
16839;SDS011;8536;52.150;11.572;2022-12-29T07:46:58;0.90;;;0.82;;
16839;SDS011;8536;52.150;11.572;2022-12-29T07:49:25;1.08;;;0.98;;
16839;SDS011;8536;52.150;11.572;2022-12-29T07:51:52;0.80;;;0.80;;
16839;SDS011;8536;52.150;11.572;2022-12-29T07:54:19;1.30;;;0.90;;
16839;SDS011;8536;52.150;11.572;2022-12-29T07:56:46;1.13;;;0.75;;
16839;SDS011;8536;52.150;11.572;2022-12-29T07:59:12;1.10;;;0.80;;
16839;SDS011;8536;52.150;11.572;2022-12-29T08:01:39;0.80;;;0.70;;
16839;SDS011;8536;52.150;11.572;2022-12-29T08:04:07;0.82;;;0.82;;
16839;SDS011;8536;52.150;11.572;2022-12-29T08:06:34;1.95;;;0.90;;
16839;SDS011;8536;52.150;11.572;2022-12-29T08:09:02;0.98;;;0.68;;
16839;SDS011;8536;52.150;11.572;2022-12-29T08:11:42;0.90;;;0.88;;
16839;SDS011;8536;52.150;11.572;2022-12-29T08:14:09;1.90;;;0.60;;
16839;SDS011;8536;52.150;11.572;2022-12-29T08:16:36;1.67;;;0.60;;
16839;SDS011;8536;52.150;11.572;2022-12-29T08:19:02;1.30;;;0.70;;
16839;SDS011;8536;52.150;11.572;2022-12-29T08:21:31;0.65;;;0.63;;
16839;SDS011;8536;52.150;11.572;2022-12-29T08:23:58;0.73;;;0.70;;
16839;SDS011;8536;52.150;11.572;2022-12-29T08:26:25;0.75;;;0.60;;
16839;SDS011;8536;52.150;11.572;2022-12-29T08:28:52;0.70;;;0.70;;
16839;SDS011;8536;52.150;11.572;2022-12-29T08:31:19;0.95;;;0.70;;
16839;SDS011;8536;52.150;11.572;2022-12-29T08:33:46;0.90;;;0.50;;
16839;SDS011;8536;52.150;11.572;2022-12-29T08:36:13;1.90;;;0.80;;
16839;SDS011;8536;52.150;11.572;2022-12-29T08:38:39;0.60;;;0.60;;
16839;SDS011;8536;52.150;11.572;2022-12-29T08:41:09;1.25;;;0.47;;
16839;SDS011;8536;52.150;11.572;2022-12-29T08:43:37;1.23;;;0.50;;
16839;SDS011;8536;52.150;11.572;2022-12-29T08:46:05;1.17;;;0.50;;
16839;SDS011;8536;52.150;11.572;2022-12-29T08:48:32;0.95;;;0.70;;
16839;SDS011;8536;52.150;11.572;2022-12-29T08:50:59;1.02;;;0.77;;
16839;SDS011;8536;52.150;11.572;2022-12-29T08:53:31;0.60;;;0.50;;
16839;SDS011;8536;52.150;11.572;2022-12-29T08:55:59;1.85;;;0.55;;
16839;SDS011;8536;52.150;11.572;2022-12-29T08:58:31;1.67;;;0.82;;
16839;SDS011;8536;52.150;11.572;2022-12-29T09:00:58;1.20;;;0.70;;
16839;SDS011;8536;52.150;11.572;2022-12-29T09:03:25;0.80;;;0.70;;
16839;SDS011;8536;52.150;11.572;2022-12-29T09:06:12;1.20;;;0.45;;
16839;SDS011;8536;52.150;11.572;2022-12-29T09:08:42;1.33;;;0.70;;
16839;SDS011;8536;52.150;11.572;2022-12-29T09:11:10;2.05;;;0.80;;
16839;SDS011;8536;52.150;11.572;2022-12-29T09:13:38;0.63;;;0.63;;
16839;SDS011;8536;52.150;11.572;2022-12-29T09:16:05;0.85;;;0.70;;
16839;SDS011;8536;52.150;11.572;2022-12-29T09:18:32;1.63;;;0.45;;
16839;SDS011;8536;52.150;11.572;2022-12-29T09:20:59;1.42;;;0.70;;
16839;SDS011;8536;52.150;11.572;2022-12-29T09:23:27;0.98;;;0.70;;
16839;SDS011;8536;52.150;11.572;2022-12-29T09:25:54;0.95;;;0.60;;
16839;SDS011;8536;52.150;11.572;2022-12-29T09:28:21;0.50;;;0.50;;
16839;SDS011;8536;52.150;11.572;2022-12-29T09:30:49;1.77;;;0.55;;
16839;SDS011;8536;52.150;11.572;2022-12-29T09:33:16;1.02;;;0.50;;
16839;SDS011;8536;52.150;11.572;2022-12-29T09:35:44;2.08;;;0.70;;
16839;SDS011;8536;52.150;11.572;2022-12-29T09:38:11;0.57;;;0.57;;
16839;SDS011;8536;52.150;11.572;2022-12-29T09:40:38;0.43;;;0.43;;
16839;SDS011;8536;52.150;11.572;2022-12-29T09:48:13;2.28;;;0.82;;
16839;SDS011;8536;52.150;11.572;2022-12-29T09:50:43;0.77;;;0.68;;
16839;SDS011;8536;52.150;11.572;2022-12-29T09:55:49;0.50;;;0.50;;
16839;SDS011;8536;52.150;11.572;2022-12-29T09:58:38;1.02;;;0.80;;
16839;SDS011;8536;52.150;11.572;2022-12-29T10:03:36;1.38;;;0.70;;
16839;SDS011;8536;52.150;11.572;2022-12-29T10:06:13;0.60;;;0.60;;
16839;SDS011;8536;52.150;11.572;2022-12-29T10:11:35;0.60;;;0.60;;
16839;SDS011;8536;52.150;11.572;2022-12-29T10:17:29;1.92;;;0.50;;
16839;SDS011;8536;52.150;11.572;2022-12-29T10:20:27;3.40;;;0.55;;
16839;SDS011;8536;52.150;11.572;2022-12-29T10:26:16;0.60;;;0.50;;
16839;SDS011;8536;52.150;11.572;2022-12-29T10:28:56;2.22;;;0.50;;
16839;SDS011;8536;52.150;11.572;2022-12-29T10:31:30;1.85;;;0.40;;
16839;SDS011;8536;52.150;11.572;2022-12-29T10:34:02;1.55;;;0.35;;
16839;SDS011;8536;52.150;11.572;2022-12-29T10:39:14;2.40;;;0.30;;
16839;SDS011;8536;52.150;11.572;2022-12-29T10:44:38;0.68;;;0.20;;
16839;SDS011;8536;52.150;11.572;2022-12-29T10:47:06;0.40;;;0.20;;
16839;SDS011;8536;52.150;11.572;2022-12-29T10:49:42;0.45;;;0.30;;
16839;SDS011;8536;52.150;11.572;2022-12-29T10:52:09;1.35;;;0.30;;
16839;SDS011;8536;52.150;11.572;2022-12-29T10:54:44;2.20;;;0.80;;
16839;SDS011;8536;52.150;11.572;2022-12-29T10:57:34;1.42;;;0.70;;
16839;SDS011;8536;52.150;11.572;2022-12-29T11:00:37;2.53;;;1.50;;
16839;SDS011;8536;52.150;11.572;2022-12-29T11:05:57;1.85;;;1.10;;
16839;SDS011;8536;52.150;11.572;2022-12-29T11:08:30;2.40;;;1.63;;
16839;SDS011;8536;52.150;11.572;2022-12-29T11:11:02;0.85;;;0.40;;
16839;SDS011;8536;52.150;11.572;2022-12-29T11:13:33;0.30;;;0.30;;
16839;SDS011;8536;52.150;11.572;2022-12-29T11:16:04;1.33;;;0.70;;
16839;SDS011;8536;52.150;11.572;2022-12-29T11:18:38;0.40;;;0.30;;
16839;SDS011;8536;52.150;11.572;2022-12-29T11:21:07;0.85;;;0.40;;
16839;SDS011;8536;52.150;11.572;2022-12-29T11:24:18;0.50;;;0.30;;
16839;SDS011;8536;52.150;11.572;2022-12-29T11:26:50;0.40;;;0.25;;
16839;SDS011;8536;52.150;11.572;2022-12-29T11:29:24;0.20;;;0.20;;
16839;SDS011;8536;52.150;11.572;2022-12-29T11:31:56;0.50;;;0.20;;
16839;SDS011;8536;52.150;11.572;2022-12-29T11:34:31;0.25;;;0.25;;
16839;SDS011;8536;52.150;11.572;2022-12-29T11:37:14;1.08;;;0.20;;
16839;SDS011;8536;52.150;11.572;2022-12-29T11:39:56;0.30;;;0.30;;
16839;SDS011;8536;52.150;11.572;2022-12-29T11:42:35;0.75;;;0.30;;
16839;SDS011;8536;52.150;11.572;2022-12-29T11:45:22;0.20;;;0.20;;
16839;SDS011;8536;52.150;11.572;2022-12-29T11:48:11;1.63;;;0.40;;
16839;SDS011;8536;52.150;11.572;2022-12-29T11:50:48;0.30;;;0.30;;
16839;SDS011;8536;52.150;11.572;2022-12-29T11:53:20;0.47;;;0.40;;
16839;SDS011;8536;52.150;11.572;2022-12-29T11:55:55;1.80;;;1.00;;
16839;SDS011;8536;52.150;11.572;2022-12-29T11:58:30;1.08;;;0.70;;
16839;SDS011;8536;52.150;11.572;2022-12-29T12:01:10;1.90;;;0.70;;
16839;SDS011;8536;52.150;11.572;2022-12-29T12:03:44;1.30;;;0.45;;
16839;SDS011;8536;52.150;11.572;2022-12-29T12:06:16;0.65;;;0.43;;
16839;SDS011;8536;52.150;11.572;2022-12-29T12:08:48;0.38;;;0.38;;
16839;SDS011;8536;52.150;11.572;2022-12-29T12:11:23;0.55;;;0.45;;
16839;SDS011;8536;52.150;11.572;2022-12-29T12:14:00;0.50;;;0.35;;
16839;SDS011;8536;52.150;11.572;2022-12-29T12:16:50;0.30;;;0.30;;
16839;SDS011;8536;52.150;11.572;2022-12-29T12:19:23;1.80;;;0.52;;
16839;SDS011;8536;52.150;11.572;2022-12-29T12:22:00;0.40;;;0.20;;
16839;SDS011;8536;52.150;11.572;2022-12-29T12:24:39;0.30;;;0.30;;
16839;SDS011;8536;52.150;11.572;2022-12-29T12:27:21;0.40;;;0.30;;
16839;SDS011;8536;52.150;11.572;2022-12-29T12:30:01;0.50;;;0.30;;
16839;SDS011;8536;52.150;11.572;2022-12-29T12:35:13;1.30;;;0.50;;
16839;SDS011;8536;52.150;11.572;2022-12-29T12:41:08;1.48;;;0.55;;
16839;SDS011;8536;52.150;11.572;2022-12-29T12:43:49;0.68;;;0.55;;
16839;SDS011;8536;52.150;11.572;2022-12-29T12:46:19;0.68;;;0.47;;
16839;SDS011;8536;52.150;11.572;2022-12-29T12:48:57;0.90;;;0.50;;
16839;SDS011;8536;52.150;11.572;2022-12-29T12:51:37;1.42;;;0.60;;
16839;SDS011;8536;52.150;11.572;2022-12-29T13:08:06;1.40;;;0.98;;
16839;SDS011;8536;52.150;11.572;2022-12-29T13:10:36;1.88;;;0.90;;
16839;SDS011;8536;52.150;11.572;2022-12-29T13:13:14;1.55;;;0.70;;
16839;SDS011;8536;52.150;11.572;2022-12-29T13:16:05;4.22;;;0.60;;
16839;SDS011;8536;52.150;11.572;2022-12-29T13:18:48;1.30;;;0.70;;
16839;SDS011;8536;52.150;11.572;2022-12-29T13:24:28;2.25;;;0.50;;
16839;SDS011;8536;52.150;11.572;2022-12-29T13:27:21;1.58;;;0.60;;
16839;SDS011;8536;52.150;11.572;2022-12-29T13:30:10;2.17;;;0.75;;
16839;SDS011;8536;52.150;11.572;2022-12-29T13:32:53;1.13;;;0.50;;
16839;SDS011;8536;52.150;11.572;2022-12-29T13:38:12;1.65;;;0.40;;
16839;SDS011;8536;52.150;11.572;2022-12-29T13:40:45;1.05;;;0.50;;
16839;SDS011;8536;52.150;11.572;2022-12-29T13:43:14;0.40;;;0.40;;
16839;SDS011;8536;52.150;11.572;2022-12-29T13:45:42;1.90;;;0.73;;
16839;SDS011;8536;52.150;11.572;2022-12-29T13:48:22;1.33;;;0.80;;
16839;SDS011;8536;52.150;11.572;2022-12-29T13:50:55;1.85;;;0.82;;
16839;SDS011;8536;52.150;11.572;2022-12-29T14:02:09;2.05;;;0.90;;
16839;SDS011;8536;52.150;11.572;2022-12-29T14:05:01;1.00;;;0.50;;
16839;SDS011;8536;52.150;11.572;2022-12-29T14:07:35;0.80;;;0.50;;
16839;SDS011;8536;52.150;11.572;2022-12-29T14:10:03;0.68;;;0.40;;
16839;SDS011;8536;52.150;11.572;2022-12-29T14:12:32;0.77;;;0.57;;
16839;SDS011;8536;52.150;11.572;2022-12-29T14:17:35;0.80;;;0.35;;
16839;SDS011;8536;52.150;11.572;2022-12-29T14:20:02;1.85;;;0.60;;
16839;SDS011;8536;52.150;11.572;2022-12-29T14:22:31;0.68;;;0.60;;
16839;SDS011;8536;52.150;11.572;2022-12-29T14:24:59;2.28;;;0.70;;
16839;SDS011;8536;52.150;11.572;2022-12-29T14:29:55;2.50;;;0.90;;
16839;SDS011;8536;52.150;11.572;2022-12-29T14:34:58;0.98;;;0.50;;
16839;SDS011;8536;52.150;11.572;2022-12-29T14:38:06;1.00;;;0.60;;
16839;SDS011;8536;52.150;11.572;2022-12-29T14:40:33;2.08;;;0.68;;
16839;SDS011;8536;52.150;11.572;2022-12-29T14:43:01;2.58;;;0.40;;
16839;SDS011;8536;52.150;11.572;2022-12-29T14:45:38;3.05;;;0.73;;
16839;SDS011;8536;52.150;11.572;2022-12-29T14:48:28;1.55;;;0.90;;
16839;SDS011;8536;52.150;11.572;2022-12-29T14:50:57;1.95;;;0.47;;
16839;SDS011;8536;52.150;11.572;2022-12-29T14:53:43;0.65;;;0.65;;
16839;SDS011;8536;52.150;11.572;2022-12-29T14:56:13;0.70;;;0.50;;
16839;SDS011;8536;52.150;11.572;2022-12-29T14:58:46;2.58;;;0.70;;
16839;SDS011;8536;52.150;11.572;2022-12-29T15:01:38;0.93;;;0.50;;
16839;SDS011;8536;52.150;11.572;2022-12-29T15:04:13;1.33;;;0.63;;
16839;SDS011;8536;52.150;11.572;2022-12-29T15:06:43;0.30;;;0.30;;
16839;SDS011;8536;52.150;11.572;2022-12-29T15:11:59;3.35;;;0.73;;
16839;SDS011;8536;52.150;11.572;2022-12-29T15:14:29;1.55;;;0.50;;
16839;SDS011;8536;52.150;11.572;2022-12-29T15:16:58;0.70;;;0.43;;
16839;SDS011;8536;52.150;11.572;2022-12-29T15:19:26;0.98;;;0.43;;
16839;SDS011;8536;52.150;11.572;2022-12-29T15:21:55;1.02;;;0.30;;
16839;SDS011;8536;52.150;11.572;2022-12-29T15:24:22;0.77;;;0.50;;
16839;SDS011;8536;52.150;11.572;2022-12-29T15:26:50;2.75;;;0.57;;
16839;SDS011;8536;52.150;11.572;2022-12-29T15:29:37;2.55;;;0.50;;
16839;SDS011;8536;52.150;11.572;2022-12-29T15:32:16;0.90;;;0.47;;
16839;SDS011;8536;52.150;11.572;2022-12-29T15:34:51;0.98;;;0.60;;
16839;SDS011;8536;52.150;11.572;2022-12-29T15:37:21;1.98;;;0.60;;
16839;SDS011;8536;52.150;11.572;2022-12-29T15:39:49;0.40;;;0.40;;
16839;SDS011;8536;52.150;11.572;2022-12-29T15:42:23;4.28;;;0.50;;
16839;SDS011;8536;52.150;11.572;2022-12-29T15:44:56;2.95;;;0.82;;
16839;SDS011;8536;52.150;11.572;2022-12-29T15:47:35;1.02;;;0.55;;
16839;SDS011;8536;52.150;11.572;2022-12-29T15:50:03;1.85;;;0.50;;
16839;SDS011;8536;52.150;11.572;2022-12-29T15:52:50;1.60;;;0.47;;
16839;SDS011;8536;52.150;11.572;2022-12-29T15:55:23;2.00;;;0.75;;
16839;SDS011;8536;52.150;11.572;2022-12-29T15:57:51;4.05;;;1.98;;
16839;SDS011;8536;52.150;11.572;2022-12-29T16:00:24;1.95;;;1.05;;
16839;SDS011;8536;52.150;11.572;2022-12-29T16:02:53;3.67;;;0.90;;
16839;SDS011;8536;52.150;11.572;2022-12-29T16:05:21;3.28;;;0.80;;
16839;SDS011;8536;52.150;11.572;2022-12-29T16:07:56;1.23;;;0.90;;
16839;SDS011;8536;52.150;11.572;2022-12-29T16:10:35;2.30;;;0.70;;
16839;SDS011;8536;52.150;11.572;2022-12-29T16:13:04;1.92;;;0.98;;
16839;SDS011;8536;52.150;11.572;2022-12-29T16:15:36;0.82;;;0.77;;
16839;SDS011;8536;52.150;11.572;2022-12-29T16:18:03;1.48;;;0.60;;
16839;SDS011;8536;52.150;11.572;2022-12-29T16:20:39;2.05;;;0.70;;
16839;SDS011;8536;52.150;11.572;2022-12-29T16:23:22;1.25;;;0.60;;
16839;SDS011;8536;52.150;11.572;2022-12-29T16:25:51;2.67;;;0.95;;
16839;SDS011;8536;52.150;11.572;2022-12-29T16:28:25;1.50;;;0.70;;
16839;SDS011;8536;52.150;11.572;2022-12-29T16:31:21;0.98;;;0.68;;
16839;SDS011;8536;52.150;11.572;2022-12-29T16:33:51;2.55;;;1.60;;
16839;SDS011;8536;52.150;11.572;2022-12-29T16:36:27;1.77;;;1.20;;
16839;SDS011;8536;52.150;11.572;2022-12-29T16:41:53;2.90;;;1.55;;
16839;SDS011;8536;52.150;11.572;2022-12-29T16:44:22;1.60;;;1.13;;
16839;SDS011;8536;52.150;11.572;2022-12-29T16:49:31;1.88;;;1.10;;
16839;SDS011;8536;52.150;11.572;2022-12-29T16:51:58;1.48;;;1.00;;
16839;SDS011;8536;52.150;11.572;2022-12-29T16:54:34;3.28;;;1.00;;
16839;SDS011;8536;52.150;11.572;2022-12-29T16:57:02;10.00;;;2.90;;
16839;SDS011;8536;52.150;11.572;2022-12-29T16:59:31;2.72;;;1.08;;
16839;SDS011;8536;52.150;11.572;2022-12-29T17:02:00;1.92;;;0.82;;
16839;SDS011;8536;52.150;11.572;2022-12-29T17:04:31;3.80;;;1.08;;
16839;SDS011;8536;52.150;11.572;2022-12-29T17:06:59;2.38;;;0.60;;
16839;SDS011;8536;52.150;11.572;2022-12-29T17:09:27;1.35;;;0.70;;